createdAt,value
2018-06-27T11:22:05.071Z,35.63
2018-06-27T11:27:08.175Z,32.87
2018-06-27T11:32:11.344Z,33.27
2018-06-27T11:37:14.513Z,32.16
2018-06-27T11:42:17.706Z,32.78
2018-06-27T11:47:20.835Z,34.07
2018-06-27T11:52:23.971Z,32.89
2018-06-27T11:57:27.603Z,32.43
2018-06-27T12:02:31.366Z,32.02
2018-06-27T12:07:34.601Z,30.31
2018-06-27T12:12:37.749Z,32.78
2018-06-27T12:17:41.437Z,33.98
2018-06-27T12:22:44.646Z,33.57
2018-06-27T12:27:47.835Z,29.07
2018-06-27T12:32:51.291Z,28.66
2018-06-27T12:37:54.516Z,28.63
2018-06-27T12:42:57.954Z,29.83
2018-06-27T12:48:01.141Z,30.61
2018-06-27T12:53:04.545Z,32.16
2018-06-27T12:58:08.354Z,32.84
2018-06-27T13:03:12.157Z,30.94
2018-06-27T13:08:15.414Z,29.92
2018-06-27T13:13:18.644Z,31.03
2018-06-27T13:18:21.934Z,29.89
2018-06-27T13:23:25.064Z,30.60
2018-06-27T13:28:28.236Z,29.03
2018-06-27T13:33:31.367Z,29.22
2018-06-27T13:38:34.586Z,28.63
2018-06-27T13:43:37.826Z,28.53
2018-06-27T13:48:41.144Z,27.67
2018-06-27T13:53:44.425Z,24.89
2018-06-27T13:58:47.599Z,28.72
2018-06-27T14:03:50.814Z,29.92
2018-06-27T14:08:53.898Z,30.65
2018-06-27T14:13:57.070Z,31.92
2018-06-27T14:19:00.239Z,31.11
2018-06-27T14:24:03.485Z,31.42
2018-06-27T14:29:06.738Z,31.86
2018-06-27T14:34:11.919Z,32.15
2018-06-27T14:39:15.206Z,31.75
2018-06-27T14:44:18.437Z,30.60
2018-06-27T14:49:21.735Z,28.60
2018-06-27T14:54:25.594Z,30.93
2018-06-27T14:59:28.804Z,29.67
2018-06-27T15:04:31.955Z,31.33
2018-06-27T15:09:35.084Z,31.34
2018-06-27T15:14:38.184Z,32.81
2018-06-27T15:19:41.609Z,33.07
2018-06-27T15:24:44.947Z,32.75
2018-06-27T15:29:48.428Z,33.45
2018-06-27T15:34:51.528Z,32.80
2018-06-27T15:39:54.852Z,32.58
2018-06-27T15:44:58.028Z,32.07
2018-06-27T15:50:01.148Z,30.06
2018-06-27T15:55:04.560Z,31.89
2018-06-27T16:00:07.791Z,34.03
2018-06-27T16:05:11.027Z,33.84
2018-06-27T16:10:14.605Z,34.68
2018-06-27T16:15:18.632Z,33.68
2018-06-27T16:20:21.977Z,34.25
2018-06-27T16:25:25.096Z,33.00
2018-06-27T16:30:28.271Z,32.63
2018-06-27T16:35:32.112Z,31.52
2018-06-27T16:40:35.850Z,32.51
2018-06-27T16:45:38.989Z,31.73
2018-06-27T16:50:42.431Z,30.85
2018-06-27T16:55:45.903Z,31.67
2018-06-27T17:00:50.136Z,31.75
2018-06-27T17:05:54.455Z,30.58
2018-06-27T17:10:57.656Z,31.22
2018-06-27T17:16:00.816Z,31.37
2018-06-27T17:21:03.985Z,31.48
2018-06-27T17:26:07.197Z,31.57
2018-06-27T17:31:10.392Z,31.18
2018-06-27T17:36:13.907Z,32.92
2018-06-27T17:41:17.349Z,32.51
2018-06-27T17:46:20.633Z,33.10
2018-06-27T17:51:23.875Z,32.54
2018-06-27T17:56:27.445Z,33.33
2018-06-27T18:01:30.702Z,33.47
2018-06-27T18:06:33.842Z,33.37
2018-06-27T18:11:36.963Z,33.73
2018-06-27T18:16:40.147Z,35.81
2018-06-27T18:21:43.311Z,36.12
2018-06-27T18:26:46.459Z,36.25
2018-06-27T18:31:49.742Z,37.96
2018-06-27T18:36:53.073Z,38.42
2018-06-27T18:41:56.435Z,37.91
2018-06-27T18:47:02.479Z,40.10
2018-06-27T18:52:06.040Z,39.81
2018-06-27T18:57:09.229Z,40.95
2018-06-27T19:02:12.462Z,39.31
2018-06-27T19:07:15.671Z,41.00
2018-06-27T19:12:18.956Z,40.48
2018-06-27T19:17:22.248Z,41.73
2018-06-27T19:22:25.435Z,42.31
2018-06-27T19:27:28.699Z,43.99
2018-06-27T19:32:31.950Z,45.46
2018-06-27T19:37:35.073Z,45.02
2018-06-27T19:42:38.296Z,44.73
2018-06-27T19:47:41.547Z,46.17
2018-06-27T19:52:45.249Z,46.99
2018-06-27T19:57:48.961Z,48.65
2018-06-27T20:02:55.249Z,51.15
2018-06-27T20:07:59.779Z,52.91
2018-06-27T20:13:06.314Z,54.21
2018-06-27T20:18:09.871Z,53.45
2018-06-27T20:23:13.283Z,54.28
2018-06-27T20:28:16.427Z,53.03
2018-06-27T20:33:19.639Z,52.16
2018-06-27T20:38:22.789Z,53.01
2018-06-27T20:43:25.949Z,52.22
2018-06-27T20:48:29.405Z,53.64
2018-06-27T20:53:32.756Z,55.22
2018-06-27T20:58:36.020Z,55.58
2018-06-27T21:03:39.231Z,55.43
2018-06-27T21:08:42.353Z,55.62
2018-06-27T21:13:45.566Z,56.22
2018-06-27T21:18:49.637Z,56.89
2018-06-27T21:23:52.765Z,57.68
2018-06-27T21:28:55.855Z,58.16
2018-06-27T21:34:01.314Z,58.79
2018-06-27T21:39:07.404Z,59.24
2018-06-27T21:44:10.550Z,59.56
2018-06-27T21:49:13.666Z,59.45
2018-06-27T21:54:16.888Z,60.50
2018-06-27T21:59:20.030Z,60.96
2018-06-27T22:04:23.205Z,60.73
2018-06-27T22:09:26.763Z,61.55
2018-06-27T22:14:29.958Z,61.31
2018-06-27T22:19:33.178Z,62.04
2018-06-27T22:24:36.501Z,61.92
2018-06-27T22:29:39.621Z,62.55
2018-06-27T22:34:42.849Z,63.33
2018-06-27T22:39:46.020Z,63.11
2018-06-27T22:44:49.170Z,63.08
2018-06-27T22:49:52.309Z,62.98
2018-06-27T22:54:55.408Z,63.45
2018-06-27T22:59:58.623Z,63.42
2018-06-27T23:05:01.793Z,63.99
2018-06-27T23:10:05.155Z,63.21
2018-06-27T23:15:08.383Z,63.78
2018-06-27T23:20:11.534Z,63.95
2018-06-27T23:25:14.682Z,63.39
2018-06-27T23:30:17.825Z,63.14
2018-06-27T23:35:21.310Z,62.67
2018-06-27T23:40:24.991Z,62.92
2018-06-27T23:45:28.133Z,62.94
2018-06-27T23:50:31.255Z,64.17
2018-06-27T23:55:34.387Z,63.44
